sensor_id;sensor_type;location;lat;lon;timestamp;P1;durP1;ratioP1;P2;durP2;ratioP2
67162;SDS011;54092;53.088;8.850;2023-12-14T00:00:43;8.55;;;4.63;;
67162;SDS011;54092;53.088;8.850;2023-12-14T00:03:08;10.32;;;5.03;;
67162;SDS011;54092;53.088;8.850;2023-12-14T00:05:34;7.78;;;4.38;;
67162;SDS011;54092;53.088;8.850;2023-12-14T00:08:00;10.20;;;5.22;;
67162;SDS011;54092;53.088;8.850;2023-12-14T00:10:25;10.95;;;5.28;;
67162;SDS011;54092;53.088;8.850;2023-12-14T00:12:51;9.88;;;5.32;;
67162;SDS011;54092;53.088;8.850;2023-12-14T00:15:18;10.70;;;5.50;;
67162;SDS011;54092;53.088;8.850;2023-12-14T00:17:43;9.85;;;5.65;;
67162;SDS011;54092;53.088;8.850;2023-12-14T00:20:09;11.63;;;5.70;;
67162;SDS011;54092;53.088;8.850;2023-12-14T00:22:34;9.93;;;6.00;;
67162;SDS011;54092;53.088;8.850;2023-12-14T00:25:00;11.50;;;5.93;;
67162;SDS011;54092;53.088;8.850;2023-12-14T00:27:26;11.15;;;5.70;;
67162;SDS011;54092;53.088;8.850;2023-12-14T00:29:51;10.13;;;5.78;;
67162;SDS011;54092;53.088;8.850;2023-12-14T00:32:17;11.27;;;5.60;;
67162;SDS011;54092;53.088;8.850;2023-12-14T00:34:42;10.32;;;5.50;;
67162;SDS011;54092;53.088;8.850;2023-12-14T00:37:08;10.32;;;5.85;;
67162;SDS011;54092;53.088;8.850;2023-12-14T00:39:33;12.38;;;6.35;;
67162;SDS011;54092;53.088;8.850;2023-12-14T00:41:59;9.85;;;5.97;;
67162;SDS011;54092;53.088;8.850;2023-12-14T00:44:24;9.68;;;5.15;;
67162;SDS011;54092;53.088;8.850;2023-12-14T00:46:50;10.65;;;5.57;;
67162;SDS011;54092;53.088;8.850;2023-12-14T00:49:15;10.68;;;5.10;;
67162;SDS011;54092;53.088;8.850;2023-12-14T00:51:43;12.05;;;5.70;;
67162;SDS011;54092;53.088;8.850;2023-12-14T00:54:08;9.85;;;5.03;;
67162;SDS011;54092;53.088;8.850;2023-12-14T00:56:34;9.02;;;4.93;;
67162;SDS011;54092;53.088;8.850;2023-12-14T00:58:59;11.48;;;5.68;;
67162;SDS011;54092;53.088;8.850;2023-12-14T01:01:25;10.20;;;5.00;;
67162;SDS011;54092;53.088;8.850;2023-12-14T01:03:50;12.57;;;5.00;;
67162;SDS011;54092;53.088;8.850;2023-12-14T01:06:15;9.85;;;5.05;;
67162;SDS011;54092;53.088;8.850;2023-12-14T01:08:41;8.02;;;4.43;;
67162;SDS011;54092;53.088;8.850;2023-12-14T01:11:06;9.20;;;4.63;;
67162;SDS011;54092;53.088;8.850;2023-12-14T01:13:32;9.57;;;4.63;;
67162;SDS011;54092;53.088;8.850;2023-12-14T01:15:58;8.43;;;4.47;;
67162;SDS011;54092;53.088;8.850;2023-12-14T01:18:23;8.45;;;4.35;;
67162;SDS011;54092;53.088;8.850;2023-12-14T01:20:49;8.15;;;4.15;;
67162;SDS011;54092;53.088;8.850;2023-12-14T01:23:15;8.05;;;3.97;;
67162;SDS011;54092;53.088;8.850;2023-12-14T01:25:40;7.05;;;3.75;;
67162;SDS011;54092;53.088;8.850;2023-12-14T01:28:06;8.27;;;3.85;;
67162;SDS011;54092;53.088;8.850;2023-12-14T01:30:31;10.82;;;4.00;;
67162;SDS011;54092;53.088;8.850;2023-12-14T01:32:57;7.45;;;4.15;;
67162;SDS011;54092;53.088;8.850;2023-12-14T01:35:22;6.45;;;3.22;;
67162;SDS011;54092;53.088;8.850;2023-12-14T01:37:48;8.25;;;3.88;;
67162;SDS011;54092;53.088;8.850;2023-12-14T01:40:14;6.78;;;3.33;;
67162;SDS011;54092;53.088;8.850;2023-12-14T01:42:43;7.22;;;3.45;;
67162;SDS011;54092;53.088;8.850;2023-12-14T01:45:09;7.60;;;3.10;;
67162;SDS011;54092;53.088;8.850;2023-12-14T01:47:35;7.28;;;3.53;;
67162;SDS011;54092;53.088;8.850;2023-12-14T01:50:00;8.05;;;2.92;;
67162;SDS011;54092;53.088;8.850;2023-12-14T01:52:26;9.75;;;3.80;;
67162;SDS011;54092;53.088;8.850;2023-12-14T01:54:52;6.07;;;3.20;;
67162;SDS011;54092;53.088;8.850;2023-12-14T01:57:17;6.47;;;3.25;;
67162;SDS011;54092;53.088;8.850;2023-12-14T01:59:43;7.28;;;3.30;;
67162;SDS011;54092;53.088;8.850;2023-12-14T02:02:08;7.50;;;3.45;;
67162;SDS011;54092;53.088;8.850;2023-12-14T02:04:34;11.52;;;3.47;;
67162;SDS011;54092;53.088;8.850;2023-12-14T02:07:00;8.73;;;3.22;;
67162;SDS011;54092;53.088;8.850;2023-12-14T02:09:25;6.93;;;2.78;;
67162;SDS011;54092;53.088;8.850;2023-12-14T02:11:51;6.65;;;3.50;;
67162;SDS011;54092;53.088;8.850;2023-12-14T02:14:16;7.68;;;3.05;;
67162;SDS011;54092;53.088;8.850;2023-12-14T02:16:42;6.30;;;2.88;;
67162;SDS011;54092;53.088;8.850;2023-12-14T02:19:07;6.38;;;3.28;;
67162;SDS011;54092;53.088;8.850;2023-12-14T02:21:33;7.22;;;3.03;;
67162;SDS011;54092;53.088;8.850;2023-12-14T02:23:58;5.53;;;2.85;;
67162;SDS011;54092;53.088;8.850;2023-12-14T02:26:24;6.72;;;3.10;;
67162;SDS011;54092;53.088;8.850;2023-12-14T02:28:49;7.18;;;2.83;;
67162;SDS011;54092;53.088;8.850;2023-12-14T02:31:15;6.03;;;2.85;;
67162;SDS011;54092;53.088;8.850;2023-12-14T02:33:40;8.02;;;3.10;;
67162;SDS011;54092;53.088;8.850;2023-12-14T02:36:06;6.35;;;2.85;;
67162;SDS011;54092;53.088;8.850;2023-12-14T02:38:32;5.80;;;2.83;;
67162;SDS011;54092;53.088;8.850;2023-12-14T02:40:58;8.20;;;2.85;;
67162;SDS011;54092;53.088;8.850;2023-12-14T02:43:23;9.05;;;3.38;;
67162;SDS011;54092;53.088;8.850;2023-12-14T02:45:49;6.05;;;3.05;;
67162;SDS011;54092;53.088;8.850;2023-12-14T02:48:15;7.57;;;3.13;;
67162;SDS011;54092;53.088;8.850;2023-12-14T02:50:40;6.32;;;3.00;;
67162;SDS011;54092;53.088;8.850;2023-12-14T02:53:06;5.50;;;2.80;;
67162;SDS011;54092;53.088;8.850;2023-12-14T02:55:31;6.78;;;3.03;;
67162;SDS011;54092;53.088;8.850;2023-12-14T02:57:57;6.88;;;3.10;;
67162;SDS011;54092;53.088;8.850;2023-12-14T03:00:22;7.38;;;3.47;;
67162;SDS011;54092;53.088;8.850;2023-12-14T03:02:48;8.13;;;3.53;;
67162;SDS011;54092;53.088;8.850;2023-12-14T03:05:13;8.45;;;3.42;;
67162;SDS011;54092;53.088;8.850;2023-12-14T03:07:39;7.45;;;3.53;;
67162;SDS011;54092;53.088;8.850;2023-12-14T03:10:04;8.68;;;3.45;;
67162;SDS011;54092;53.088;8.850;2023-12-14T03:12:30;7.55;;;3.22;;
67162;SDS011;54092;53.088;8.850;2023-12-14T03:14:56;6.38;;;3.17;;
67162;SDS011;54092;53.088;8.850;2023-12-14T03:17:21;8.63;;;3.35;;
67162;SDS011;54092;53.088;8.850;2023-12-14T03:19:47;6.75;;;3.08;;
67162;SDS011;54092;53.088;8.850;2023-12-14T03:22:12;7.90;;;3.28;;
67162;SDS011;54092;53.088;8.850;2023-12-14T03:24:38;7.00;;;2.78;;
67162;SDS011;54092;53.088;8.850;2023-12-14T03:27:04;6.75;;;2.67;;
67162;SDS011;54092;53.088;8.850;2023-12-14T03:29:29;8.13;;;3.40;;
67162;SDS011;54092;53.088;8.850;2023-12-14T03:31:56;5.88;;;3.00;;
67162;SDS011;54092;53.088;8.850;2023-12-14T03:34:21;7.20;;;2.90;;
67162;SDS011;54092;53.088;8.850;2023-12-14T03:36:47;6.55;;;2.90;;
67162;SDS011;54092;53.088;8.850;2023-12-14T03:39:13;6.65;;;3.08;;
67162;SDS011;54092;53.088;8.850;2023-12-14T03:41:38;7.20;;;3.17;;
67162;SDS011;54092;53.088;8.850;2023-12-14T03:44:04;5.90;;;3.03;;
67162;SDS011;54092;53.088;8.850;2023-12-14T03:46:29;6.22;;;3.00;;
67162;SDS011;54092;53.088;8.850;2023-12-14T03:48:55;6.70;;;3.15;;
67162;SDS011;54092;53.088;8.850;2023-12-14T03:51:20;6.57;;;2.88;;
67162;SDS011;54092;53.088;8.850;2023-12-14T03:53:46;8.05;;;3.30;;
67162;SDS011;54092;53.088;8.850;2023-12-14T03:56:12;6.15;;;2.85;;
67162;SDS011;54092;53.088;8.850;2023-12-14T03:58:37;7.88;;;2.70;;
67162;SDS011;54092;53.088;8.850;2023-12-14T04:01:03;6.25;;;2.90;;
67162;SDS011;54092;53.088;8.850;2023-12-14T04:03:29;6.57;;;2.78;;
67162;SDS011;54092;53.088;8.850;2023-12-14T04:05:54;7.10;;;2.60;;
67162;SDS011;54092;53.088;8.850;2023-12-14T04:08:20;6.63;;;2.58;;
67162;SDS011;54092;53.088;8.850;2023-12-14T04:10:45;7.07;;;2.90;;
67162;SDS011;54092;53.088;8.850;2023-12-14T04:13:11;5.47;;;2.92;;
67162;SDS011;54092;53.088;8.850;2023-12-14T04:15:36;5.70;;;2.72;;
67162;SDS011;54092;53.088;8.850;2023-12-14T04:18:01;6.40;;;2.85;;
67162;SDS011;54092;53.088;8.850;2023-12-14T04:20:27;5.20;;;2.80;;
67162;SDS011;54092;53.088;8.850;2023-12-14T04:22:52;8.57;;;2.90;;
67162;SDS011;54092;53.088;8.850;2023-12-14T04:25:18;9.02;;;2.90;;
67162;SDS011;54092;53.088;8.850;2023-12-14T04:27:44;7.28;;;3.22;;
67162;SDS011;54092;53.088;8.850;2023-12-14T04:30:09;8.30;;;3.15;;
67162;SDS011;54092;53.088;8.850;2023-12-14T04:32:37;5.72;;;2.33;;
67162;SDS011;54092;53.088;8.850;2023-12-14T04:35:03;8.40;;;2.92;;
67162;SDS011;54092;53.088;8.850;2023-12-14T04:37:29;5.30;;;2.50;;
67162;SDS011;54092;53.088;8.850;2023-12-14T04:39:55;10.20;;;2.78;;
67162;SDS011;54092;53.088;8.850;2023-12-14T04:42:20;6.40;;;2.97;;
67162;SDS011;54092;53.088;8.850;2023-12-14T04:44:46;5.95;;;2.92;;
67162;SDS011;54092;53.088;8.850;2023-12-14T04:47:11;4.65;;;2.63;;
67162;SDS011;54092;53.088;8.850;2023-12-14T04:49:37;7.25;;;2.60;;
67162;SDS011;54092;53.088;8.850;2023-12-14T04:52:02;6.10;;;2.53;;
67162;SDS011;54092;53.088;8.850;2023-12-14T04:54:28;4.05;;;1.90;;
67162;SDS011;54092;53.088;8.850;2023-12-14T04:56:53;5.43;;;2.17;;
67162;SDS011;54092;53.088;8.850;2023-12-14T04:59:19;5.47;;;2.38;;
67162;SDS011;54092;53.088;8.850;2023-12-14T05:01:44;7.32;;;2.75;;
67162;SDS011;54092;53.088;8.850;2023-12-14T05:04:10;7.35;;;2.78;;
67162;SDS011;54092;53.088;8.850;2023-12-14T05:06:35;4.70;;;2.42;;
67162;SDS011;54092;53.088;8.850;2023-12-14T05:09:02;7.80;;;2.60;;
67162;SDS011;54092;53.088;8.850;2023-12-14T05:11:30;7.18;;;2.78;;
67162;SDS011;54092;53.088;8.850;2023-12-14T05:13:56;6.90;;;3.03;;
67162;SDS011;54092;53.088;8.850;2023-12-14T05:16:22;7.75;;;3.03;;
67162;SDS011;54092;53.088;8.850;2023-12-14T05:18:51;8.95;;;3.10;;
67162;SDS011;54092;53.088;8.850;2023-12-14T05:21:17;7.93;;;3.00;;
67162;SDS011;54092;53.088;8.850;2023-12-14T05:23:43;8.38;;;3.33;;
67162;SDS011;54092;53.088;8.850;2023-12-14T05:26:08;6.55;;;2.70;;
67162;SDS011;54092;53.088;8.850;2023-12-14T05:28:34;11.38;;;3.47;;
67162;SDS011;54092;53.088;8.850;2023-12-14T05:31:00;9.68;;;3.42;;
67162;SDS011;54092;53.088;8.850;2023-12-14T05:33:25;7.65;;;3.22;;
67162;SDS011;54092;53.088;8.850;2023-12-14T05:35:51;8.20;;;3.70;;
67162;SDS011;54092;53.088;8.850;2023-12-14T05:38:17;8.48;;;3.53;;
67162;SDS011;54092;53.088;8.850;2023-12-14T05:40:42;8.93;;;3.40;;
67162;SDS011;54092;53.088;8.850;2023-12-14T05:43:08;7.07;;;2.83;;
67162;SDS011;54092;53.088;8.850;2023-12-14T05:45:34;9.57;;;3.08;;
67162;SDS011;54092;53.088;8.850;2023-12-14T05:48:00;8.05;;;2.97;;
67162;SDS011;54092;53.088;8.850;2023-12-14T05:50:26;8.50;;;3.28;;
67162;SDS011;54092;53.088;8.850;2023-12-14T05:52:52;7.75;;;2.95;;
67162;SDS011;54092;53.088;8.850;2023-12-14T05:55:18;6.63;;;3.47;;
67162;SDS011;54092;53.088;8.850;2023-12-14T05:57:46;7.05;;;3.10;;
67162;SDS011;54092;53.088;8.850;2023-12-14T06:00:15;7.18;;;3.15;;
67162;SDS011;54092;53.088;8.850;2023-12-14T06:02:41;8.13;;;3.78;;
67162;SDS011;54092;53.088;8.850;2023-12-14T06:05:07;7.07;;;2.72;;
67162;SDS011;54092;53.088;8.850;2023-12-14T06:07:33;6.18;;;2.90;;
67162;SDS011;54092;53.088;8.850;2023-12-14T06:09:58;6.07;;;2.97;;
67162;SDS011;54092;53.088;8.850;2023-12-14T06:12:25;7.68;;;2.92;;
67162;SDS011;54092;53.088;8.850;2023-12-14T06:14:51;8.45;;;2.97;;
67162;SDS011;54092;53.088;8.850;2023-12-14T06:17:16;9.27;;;3.45;;
67162;SDS011;54092;53.088;8.850;2023-12-14T06:19:42;9.80;;;3.10;;
67162;SDS011;54092;53.088;8.850;2023-12-14T06:22:07;5.78;;;3.05;;
67162;SDS011;54092;53.088;8.850;2023-12-14T06:24:33;8.82;;;3.80;;
67162;SDS011;54092;53.088;8.850;2023-12-14T06:26:58;9.35;;;3.30;;
67162;SDS011;54092;53.088;8.850;2023-12-14T06:29:24;10.20;;;3.33;;
67162;SDS011;54092;53.088;8.850;2023-12-14T06:31:49;7.57;;;3.03;;
67162;SDS011;54092;53.088;8.850;2023-12-14T06:34:16;6.03;;;3.05;;
67162;SDS011;54092;53.088;8.850;2023-12-14T06:36:42;7.57;;;3.13;;
67162;SDS011;54092;53.088;8.850;2023-12-14T06:39:09;8.23;;;2.90;;
67162;SDS011;54092;53.088;8.850;2023-12-14T06:41:35;10.80;;;2.97;;
67162;SDS011;54092;53.088;8.850;2023-12-14T06:44:01;5.93;;;2.70;;
67162;SDS011;54092;53.088;8.850;2023-12-14T06:46:27;6.97;;;2.75;;
67162;SDS011;54092;53.088;8.850;2023-12-14T06:48:53;6.78;;;2.65;;
67162;SDS011;54092;53.088;8.850;2023-12-14T06:51:19;6.55;;;2.67;;
67162;SDS011;54092;53.088;8.850;2023-12-14T06:53:44;7.05;;;3.10;;
67162;SDS011;54092;53.088;8.850;2023-12-14T06:56:11;9.05;;;3.22;;
67162;SDS011;54092;53.088;8.850;2023-12-14T06:58:37;8.82;;;2.72;;
67162;SDS011;54092;53.088;8.850;2023-12-14T07:01:04;8.15;;;3.25;;
67162;SDS011;54092;53.088;8.850;2023-12-14T07:03:30;8.93;;;3.10;;
67162;SDS011;54092;53.088;8.850;2023-12-14T07:05:56;6.10;;;2.70;;
67162;SDS011;54092;53.088;8.850;2023-12-14T07:08:22;7.13;;;2.80;;
67162;SDS011;54092;53.088;8.850;2023-12-14T07:10:48;7.85;;;2.80;;
67162;SDS011;54092;53.088;8.850;2023-12-14T07:13:14;7.03;;;2.65;;
67162;SDS011;54092;53.088;8.850;2023-12-14T07:15:39;7.30;;;3.15;;
67162;SDS011;54092;53.088;8.850;2023-12-14T07:18:05;8.13;;;3.28;;
67162;SDS011;54092;53.088;8.850;2023-12-14T07:20:30;6.20;;;2.85;;
67162;SDS011;54092;53.088;8.850;2023-12-14T07:22:56;7.78;;;3.00;;
67162;SDS011;54092;53.088;8.850;2023-12-14T07:25:21;5.60;;;2.45;;
67162;SDS011;54092;53.088;8.850;2023-12-14T07:27:47;8.27;;;2.83;;
67162;SDS011;54092;53.088;8.850;2023-12-14T07:30:12;7.47;;;2.90;;
67162;SDS011;54092;53.088;8.850;2023-12-14T07:32:38;5.55;;;2.70;;
67162;SDS011;54092;53.088;8.850;2023-12-14T07:35:04;6.53;;;2.60;;
67162;SDS011;54092;53.088;8.850;2023-12-14T07:37:30;7.78;;;2.90;;
67162;SDS011;54092;53.088;8.850;2023-12-14T07:39:56;7.68;;;3.05;;
67162;SDS011;54092;53.088;8.850;2023-12-14T07:42:22;7.05;;;2.58;;
67162;SDS011;54092;53.088;8.850;2023-12-14T07:44:48;8.40;;;2.90;;
67162;SDS011;54092;53.088;8.850;2023-12-14T07:47:14;7.75;;;2.90;;
67162;SDS011;54092;53.088;8.850;2023-12-14T07:49:39;6.85;;;2.78;;
67162;SDS011;54092;53.088;8.850;2023-12-14T07:52:05;8.15;;;2.97;;
67162;SDS011;54092;53.088;8.850;2023-12-14T07:54:30;8.15;;;3.08;;
67162;SDS011;54092;53.088;8.850;2023-12-14T07:56:56;7.60;;;3.33;;
67162;SDS011;54092;53.088;8.850;2023-12-14T07:59:22;7.20;;;3.33;;
67162;SDS011;54092;53.088;8.850;2023-12-14T08:01:47;8.70;;;3.40;;
67162;SDS011;54092;53.088;8.850;2023-12-14T08:04:13;7.63;;;3.38;;
67162;SDS011;54092;53.088;8.850;2023-12-14T08:06:38;7.55;;;3.38;;
67162;SDS011;54092;53.088;8.850;2023-12-14T08:09:04;8.80;;;3.83;;
67162;SDS011;54092;53.088;8.850;2023-12-14T08:11:33;7.45;;;3.67;;
67162;SDS011;54092;53.088;8.850;2023-12-14T08:13:59;11.00;;;3.92;;
67162;SDS011;54092;53.088;8.850;2023-12-14T08:16:24;9.07;;;3.92;;
67162;SDS011;54092;53.088;8.850;2023-12-14T08:18:50;10.93;;;4.28;;
67162;SDS011;54092;53.088;8.850;2023-12-14T08:21:15;15.00;;;4.65;;
67162;SDS011;54092;53.088;8.850;2023-12-14T08:23:43;10.88;;;4.28;;
67162;SDS011;54092;53.088;8.850;2023-12-14T08:26:09;9.85;;;4.22;;
67162;SDS011;54092;53.088;8.850;2023-12-14T08:28:37;11.75;;;5.00;;
67162;SDS011;54092;53.088;8.850;2023-12-14T08:31:03;13.50;;;5.10;;
67162;SDS011;54092;53.088;8.850;2023-12-14T08:33:29;12.82;;;5.40;;
67162;SDS011;54092;53.088;8.850;2023-12-14T08:35:55;13.00;;;5.05;;
67162;SDS011;54092;53.088;8.850;2023-12-14T08:38:20;11.38;;;5.03;;
67162;SDS011;54092;53.088;8.850;2023-12-14T08:40:46;11.45;;;4.78;;
67162;SDS011;54092;53.088;8.850;2023-12-14T08:43:11;12.00;;;5.03;;
67162;SDS011;54092;53.088;8.850;2023-12-14T08:45:37;10.13;;;4.72;;
67162;SDS011;54092;53.088;8.850;2023-12-14T08:48:03;13.30;;;5.07;;
67162;SDS011;54092;53.088;8.850;2023-12-14T08:50:29;11.38;;;4.50;;
67162;SDS011;54092;53.088;8.850;2023-12-14T08:52:54;12.75;;;4.93;;
67162;SDS011;54092;53.088;8.850;2023-12-14T08:55:20;13.10;;;4.97;;
67162;SDS011;54092;53.088;8.850;2023-12-14T08:57:46;12.55;;;4.70;;
67162;SDS011;54092;53.088;8.850;2023-12-14T09:00:12;11.02;;;5.03;;
67162;SDS011;54092;53.088;8.850;2023-12-14T09:02:38;12.18;;;5.40;;
67162;SDS011;54092;53.088;8.850;2023-12-14T09:05:03;11.98;;;4.57;;
67162;SDS011;54092;53.088;8.850;2023-12-14T09:07:30;11.95;;;4.75;;
67162;SDS011;54092;53.088;8.850;2023-12-14T09:09:56;12.40;;;4.45;;
67162;SDS011;54092;53.088;8.850;2023-12-14T09:12:21;13.48;;;4.82;;
67162;SDS011;54092;53.088;8.850;2023-12-14T09:14:47;11.05;;;4.88;;
67162;SDS011;54092;53.088;8.850;2023-12-14T09:17:13;9.80;;;4.97;;
67162;SDS011;54092;53.088;8.850;2023-12-14T09:19:38;11.85;;;4.55;;
67162;SDS011;54092;53.088;8.850;2023-12-14T09:22:04;9.00;;;4.35;;
67162;SDS011;54092;53.088;8.850;2023-12-14T09:24:29;11.23;;;4.50;;
67162;SDS011;54092;53.088;8.850;2023-12-14T09:26:55;12.95;;;5.38;;
67162;SDS011;54092;53.088;8.850;2023-12-14T09:29:21;12.88;;;4.95;;
67162;SDS011;54092;53.088;8.850;2023-12-14T09:31:46;17.33;;;5.43;;
67162;SDS011;54092;53.088;8.850;2023-12-14T09:34:12;10.18;;;4.25;;
67162;SDS011;54092;53.088;8.850;2023-12-14T09:36:38;10.85;;;4.07;;
67162;SDS011;54092;53.088;8.850;2023-12-14T09:39:04;12.40;;;4.60;;
67162;SDS011;54092;53.088;8.850;2023-12-14T09:41:30;11.00;;;4.38;;
67162;SDS011;54092;53.088;8.850;2023-12-14T09:43:56;12.45;;;5.50;;
67162;SDS011;54092;53.088;8.850;2023-12-14T09:46:21;11.07;;;4.57;;
67162;SDS011;54092;53.088;8.850;2023-12-14T09:48:50;16.70;;;10.30;;
67162;SDS011;54092;53.088;8.850;2023-12-14T09:51:15;8.68;;;4.22;;
67162;SDS011;54092;53.088;8.850;2023-12-14T09:53:41;11.98;;;4.35;;
67162;SDS011;54092;53.088;8.850;2023-12-14T09:56:07;12.98;;;4.97;;
67162;SDS011;54092;53.088;8.850;2023-12-14T09:58:33;12.98;;;4.72;;
67162;SDS011;54092;53.088;8.850;2023-12-14T10:00:59;13.23;;;4.63;;
67162;SDS011;54092;53.088;8.850;2023-12-14T10:03:27;12.95;;;5.20;;
67162;SDS011;54092;53.088;8.850;2023-12-14T10:05:54;10.82;;;4.80;;
67162;SDS011;54092;53.088;8.850;2023-12-14T10:08:21;10.30;;;4.43;;
67162;SDS011;54092;53.088;8.850;2023-12-14T10:10:47;11.32;;;5.15;;
67162;SDS011;54092;53.088;8.850;2023-12-14T10:13:16;15.63;;;5.78;;
67162;SDS011;54092;53.088;8.850;2023-12-14T10:15:42;11.50;;;5.03;;
67162;SDS011;54092;53.088;8.850;2023-12-14T10:18:08;12.35;;;4.35;;
67162;SDS011;54092;53.088;8.850;2023-12-14T10:20:34;9.55;;;4.18;;
67162;SDS011;54092;53.088;8.850;2023-12-14T10:22:59;13.50;;;5.43;;
67162;SDS011;54092;53.088;8.850;2023-12-14T10:25:25;12.40;;;5.25;;
67162;SDS011;54092;53.088;8.850;2023-12-14T10:27:51;12.25;;;6.15;;
67162;SDS011;54092;53.088;8.850;2023-12-14T10:30:19;14.40;;;5.57;;
67162;SDS011;54092;53.088;8.850;2023-12-14T10:32:48;11.57;;;4.82;;
67162;SDS011;54092;53.088;8.850;2023-12-14T10:35:14;10.80;;;4.90;;
67162;SDS011;54092;53.088;8.850;2023-12-14T10:37:41;10.43;;;5.15;;
67162;SDS011;54092;53.088;8.850;2023-12-14T10:40:09;12.32;;;4.65;;
67162;SDS011;54092;53.088;8.850;2023-12-14T10:42:37;13.18;;;5.05;;
67162;SDS011;54092;53.088;8.850;2023-12-14T10:45:06;11.70;;;5.35;;
67162;SDS011;54092;53.088;8.850;2023-12-14T10:47:33;11.02;;;4.82;;
67162;SDS011;54092;53.088;8.850;2023-12-14T10:49:59;9.80;;;4.70;;
67162;SDS011;54092;53.088;8.850;2023-12-14T10:52:26;12.00;;;5.25;;
67162;SDS011;54092;53.088;8.850;2023-12-14T10:54:56;11.77;;;4.65;;
67162;SDS011;54092;53.088;8.850;2023-12-14T10:57:26;12.30;;;5.25;;
67162;SDS011;54092;53.088;8.850;2023-12-14T11:00:03;15.05;;;6.00;;
67162;SDS011;54092;53.088;8.850;2023-12-14T11:02:41;11.27;;;5.15;;
67162;SDS011;54092;53.088;8.850;2023-12-14T11:05:11;10.02;;;4.85;;
67162;SDS011;54092;53.088;8.850;2023-12-14T11:10:15;9.45;;;4.38;;
67162;SDS011;54092;53.088;8.850;2023-12-14T11:12:50;11.02;;;4.65;;
67162;SDS011;54092;53.088;8.850;2023-12-14T11:15:19;12.30;;;4.40;;
67162;SDS011;54092;53.088;8.850;2023-12-14T11:18:15;10.05;;;4.93;;
67162;SDS011;54092;53.088;8.850;2023-12-14T11:20:55;12.20;;;4.90;;
67162;SDS011;54092;53.088;8.850;2023-12-14T11:26:05;9.15;;;4.93;;
67162;SDS011;54092;53.088;8.850;2023-12-14T11:28:38;12.35;;;5.43;;
67162;SDS011;54092;53.088;8.850;2023-12-14T11:31:10;10.20;;;4.85;;
67162;SDS011;54092;53.088;8.850;2023-12-14T11:33:37;10.52;;;4.57;;
67162;SDS011;54092;53.088;8.850;2023-12-14T11:36:03;9.07;;;4.60;;
67162;SDS011;54092;53.088;8.850;2023-12-14T11:38:29;12.48;;;5.32;;
67162;SDS011;54092;53.088;8.850;2023-12-14T11:40:55;11.60;;;5.30;;
67162;SDS011;54092;53.088;8.850;2023-12-14T11:43:21;8.90;;;4.85;;
67162;SDS011;54092;53.088;8.850;2023-12-14T11:45:47;11.00;;;5.25;;
67162;SDS011;54092;53.088;8.850;2023-12-14T11:48:13;10.18;;;5.13;;
67162;SDS011;54092;53.088;8.850;2023-12-14T11:50:42;10.40;;;4.80;;
67162;SDS011;54092;53.088;8.850;2023-12-14T11:53:08;12.98;;;4.65;;
67162;SDS011;54092;53.088;8.850;2023-12-14T11:55:34;12.55;;;5.47;;
67162;SDS011;54092;53.088;8.850;2023-12-14T11:58:02;11.00;;;4.72;;
67162;SDS011;54092;53.088;8.850;2023-12-14T12:00:28;12.63;;;4.82;;
67162;SDS011;54092;53.088;8.850;2023-12-14T12:03:14;11.30;;;4.43;;
67162;SDS011;54092;53.088;8.850;2023-12-14T12:05:47;10.88;;;5.15;;
67162;SDS011;54092;53.088;8.850;2023-12-14T12:08:14;15.15;;;5.45;;
67162;SDS011;54092;53.088;8.850;2023-12-14T12:10:41;12.75;;;4.57;;
67162;SDS011;54092;53.088;8.850;2023-12-14T12:13:15;13.00;;;4.75;;
67162;SDS011;54092;53.088;8.850;2023-12-14T12:15:42;12.85;;;5.30;;
67162;SDS011;54092;53.088;8.850;2023-12-14T12:18:17;10.85;;;4.70;;
67162;SDS011;54092;53.088;8.850;2023-12-14T12:20:43;9.38;;;4.60;;
67162;SDS011;54092;53.088;8.850;2023-12-14T12:23:08;10.20;;;4.88;;
67162;SDS011;54092;53.088;8.850;2023-12-14T12:25:34;12.60;;;4.57;;
67162;SDS011;54092;53.088;8.850;2023-12-14T12:28:00;11.85;;;4.55;;
67162;SDS011;54092;53.088;8.850;2023-12-14T12:30:27;9.50;;;4.70;;
67162;SDS011;54092;53.088;8.850;2023-12-14T12:32:52;12.45;;;5.07;;
67162;SDS011;54092;53.088;8.850;2023-12-14T12:35:22;10.30;;;4.60;;
67162;SDS011;54092;53.088;8.850;2023-12-14T12:37:48;10.10;;;4.35;;
67162;SDS011;54092;53.088;8.850;2023-12-14T12:40:18;16.88;;;5.50;;
67162;SDS011;54092;53.088;8.850;2023-12-14T12:42:44;8.65;;;4.20;;
67162;SDS011;54092;53.088;8.850;2023-12-14T12:45:13;9.73;;;4.55;;
67162;SDS011;54092;53.088;8.850;2023-12-14T12:47:39;10.15;;;4.82;;
67162;SDS011;54092;53.088;8.850;2023-12-14T12:50:04;8.48;;;4.40;;
67162;SDS011;54092;53.088;8.850;2023-12-14T12:52:30;12.60;;;4.50;;
67162;SDS011;54092;53.088;8.850;2023-12-14T12:54:56;8.60;;;4.45;;
67162;SDS011;54092;53.088;8.850;2023-12-14T12:57:21;10.88;;;4.32;;
67162;SDS011;54092;53.088;8.850;2023-12-14T12:59:47;10.55;;;4.82;;
67162;SDS011;54092;53.088;8.850;2023-12-14T13:02:12;9.73;;;4.90;;
67162;SDS011;54092;53.088;8.850;2023-12-14T13:04:38;9.90;;;4.00;;
67162;SDS011;54092;53.088;8.850;2023-12-14T13:07:03;12.43;;;4.60;;
67162;SDS011;54092;53.088;8.850;2023-12-14T13:09:29;10.82;;;4.65;;
67162;SDS011;54092;53.088;8.850;2023-12-14T13:11:55;9.07;;;4.65;;
67162;SDS011;54092;53.088;8.850;2023-12-14T13:14:20;9.10;;;4.80;;
67162;SDS011;54092;53.088;8.850;2023-12-14T13:16:46;10.52;;;4.18;;
67162;SDS011;54092;53.088;8.850;2023-12-14T13:19:12;10.43;;;4.88;;
67162;SDS011;54092;53.088;8.850;2023-12-14T13:21:38;7.75;;;4.45;;
67162;SDS011;54092;53.088;8.850;2023-12-14T13:24:04;9.60;;;4.85;;
67162;SDS011;54092;53.088;8.850;2023-12-14T13:26:29;10.05;;;4.45;;
67162;SDS011;54092;53.088;8.850;2023-12-14T13:28:55;12.20;;;4.65;;
67162;SDS011;54092;53.088;8.850;2023-12-14T13:31:20;9.63;;;4.18;;
67162;SDS011;54092;53.088;8.850;2023-12-14T13:33:46;11.93;;;4.70;;
67162;SDS011;54092;53.088;8.850;2023-12-14T13:36:12;9.68;;;4.75;;
67162;SDS011;54092;53.088;8.850;2023-12-14T13:38:39;12.52;;;5.00;;
67162;SDS011;54092;53.088;8.850;2023-12-14T13:41:05;12.25;;;6.72;;
67162;SDS011;54092;53.088;8.850;2023-12-14T13:43:31;7.88;;;4.18;;
67162;SDS011;54092;53.088;8.850;2023-12-14T13:45:56;9.65;;;4.35;;
67162;SDS011;54092;53.088;8.850;2023-12-14T13:48:25;9.57;;;4.80;;
67162;SDS011;54092;53.088;8.850;2023-12-14T13:50:51;10.15;;;4.53;;
67162;SDS011;54092;53.088;8.850;2023-12-14T13:53:17;9.48;;;3.92;;
67162;SDS011;54092;53.088;8.850;2023-12-14T13:55:42;7.68;;;4.05;;
67162;SDS011;54092;53.088;8.850;2023-12-14T13:58:08;8.45;;;4.00;;
67162;SDS011;54092;53.088;8.850;2023-12-14T14:00:33;9.75;;;4.28;;
67162;SDS011;54092;53.088;8.850;2023-12-14T14:03:00;9.35;;;4.65;;
67162;SDS011;54092;53.088;8.850;2023-12-14T14:05:26;8.82;;;4.45;;
67162;SDS011;54092;53.088;8.850;2023-12-14T14:07:51;10.80;;;4.43;;
67162;SDS011;54092;53.088;8.850;2023-12-14T14:10:17;8.73;;;4.30;;
67162;SDS011;54092;53.088;8.850;2023-12-14T14:12:44;11.90;;;4.50;;
67162;SDS011;54092;53.088;8.850;2023-12-14T14:15:11;9.57;;;3.90;;
67162;SDS011;54092;53.088;8.850;2023-12-14T14:17:36;8.23;;;4.32;;
67162;SDS011;54092;53.088;8.850;2023-12-14T14:20:02;10.35;;;4.60;;
67162;SDS011;54092;53.088;8.850;2023-12-14T14:22:29;9.27;;;4.72;;
67162;SDS011;54092;53.088;8.850;2023-12-14T14:24:55;9.45;;;4.93;;
67162;SDS011;54092;53.088;8.850;2023-12-14T14:27:21;14.20;;;4.45;;
67162;SDS011;54092;53.088;8.850;2023-12-14T14:29:47;10.80;;;4.65;;
67162;SDS011;54092;53.088;8.850;2023-12-14T14:32:12;8.80;;;3.78;;
67162;SDS011;54092;53.088;8.850;2023-12-14T14:34:38;9.35;;;4.53;;
67162;SDS011;54092;53.088;8.850;2023-12-14T14:37:04;8.30;;;4.30;;
67162;SDS011;54092;53.088;8.850;2023-12-14T14:39:30;8.52;;;4.18;;
67162;SDS011;54092;53.088;8.850;2023-12-14T14:41:56;10.05;;;4.35;;